sensor_id;sensor_type;location;lat;lon;timestamp;P1;durP1;ratioP1;P2;durP2;ratioP2
20101;SDS011;10210;52.284;9.892;2023-08-21T00:01:41;9.27;;;2.70;;
20101;SDS011;10210;52.284;9.892;2023-08-21T00:04:07;6.97;;;2.63;;
20101;SDS011;10210;52.284;9.892;2023-08-21T00:06:32;9.27;;;2.80;;
20101;SDS011;10210;52.284;9.892;2023-08-21T00:08:58;4.87;;;2.30;;
20101;SDS011;10210;52.284;9.892;2023-08-21T00:11:26;7.73;;;2.60;;
20101;SDS011;10210;52.284;9.892;2023-08-21T00:13:52;7.87;;;2.87;;
20101;SDS011;10210;52.284;9.892;2023-08-21T00:16:18;6.60;;;2.80;;
20101;SDS011;10210;52.284;9.892;2023-08-21T00:18:44;8.17;;;2.60;;
20101;SDS011;10210;52.284;9.892;2023-08-21T00:21:09;6.67;;;2.50;;
20101;SDS011;10210;52.284;9.892;2023-08-21T00:23:35;5.40;;;2.27;;
20101;SDS011;10210;52.284;9.892;2023-08-21T00:26:01;6.73;;;2.57;;
20101;SDS011;10210;52.284;9.892;2023-08-21T00:28:27;5.87;;;2.43;;
20101;SDS011;10210;52.284;9.892;2023-08-21T00:31:01;5.83;;;2.43;;
20101;SDS011;10210;52.284;9.892;2023-08-21T00:33:30;7.53;;;2.43;;
20101;SDS011;10210;52.284;9.892;2023-08-21T00:35:56;9.27;;;3.40;;
20101;SDS011;10210;52.284;9.892;2023-08-21T00:38:22;6.77;;;2.97;;
20101;SDS011;10210;52.284;9.892;2023-08-21T00:40:48;9.67;;;3.10;;
20101;SDS011;10210;52.284;9.892;2023-08-21T00:43:15;7.30;;;3.17;;
20101;SDS011;10210;52.284;9.892;2023-08-21T00:45:42;8.80;;;3.27;;
20101;SDS011;10210;52.284;9.892;2023-08-21T00:48:10;9.57;;;3.20;;
20101;SDS011;10210;52.284;9.892;2023-08-21T00:50:37;10.07;;;3.10;;
20101;SDS011;10210;52.284;9.892;2023-08-21T00:53:03;10.37;;;3.20;;
20101;SDS011;10210;52.284;9.892;2023-08-21T00:55:30;10.07;;;3.27;;
20101;SDS011;10210;52.284;9.892;2023-08-21T00:57:56;10.47;;;3.40;;
20101;SDS011;10210;52.284;9.892;2023-08-21T01:00:23;9.00;;;3.77;;
20101;SDS011;10210;52.284;9.892;2023-08-21T01:02:50;8.53;;;3.30;;
20101;SDS011;10210;52.284;9.892;2023-08-21T01:05:17;10.10;;;3.27;;
20101;SDS011;10210;52.284;9.892;2023-08-21T01:07:53;9.17;;;3.23;;
20101;SDS011;10210;52.284;9.892;2023-08-21T01:10:50;9.13;;;3.00;;
20101;SDS011;10210;52.284;9.892;2023-08-21T01:13:34;8.03;;;2.70;;
20101;SDS011;10210;52.284;9.892;2023-08-21T01:16:46;8.27;;;2.97;;
20101;SDS011;10210;52.284;9.892;2023-08-21T01:19:31;9.20;;;3.10;;
20101;SDS011;10210;52.284;9.892;2023-08-21T01:22:03;8.93;;;2.80;;
20101;SDS011;10210;52.284;9.892;2023-08-21T01:24:29;7.53;;;3.07;;
20101;SDS011;10210;52.284;9.892;2023-08-21T01:26:55;7.60;;;3.07;;
20101;SDS011;10210;52.284;9.892;2023-08-21T01:29:21;9.63;;;3.13;;
20101;SDS011;10210;52.284;9.892;2023-08-21T01:31:50;7.80;;;3.17;;
20101;SDS011;10210;52.284;9.892;2023-08-21T01:34:26;7.33;;;2.80;;
20101;SDS011;10210;52.284;9.892;2023-08-21T01:36:54;9.50;;;2.97;;
20101;SDS011;10210;52.284;9.892;2023-08-21T01:39:20;8.37;;;3.00;;
20101;SDS011;10210;52.284;9.892;2023-08-21T01:41:48;5.97;;;2.53;;
20101;SDS011;10210;52.284;9.892;2023-08-21T01:44:13;9.40;;;3.37;;
20101;SDS011;10210;52.284;9.892;2023-08-21T01:46:39;9.03;;;3.17;;
20101;SDS011;10210;52.284;9.892;2023-08-21T01:49:05;9.30;;;3.20;;
20101;SDS011;10210;52.284;9.892;2023-08-21T01:51:31;9.07;;;2.90;;
20101;SDS011;10210;52.284;9.892;2023-08-21T01:53:56;11.87;;;3.00;;
20101;SDS011;10210;52.284;9.892;2023-08-21T01:56:22;5.60;;;2.63;;
20101;SDS011;10210;52.284;9.892;2023-08-21T01:58:48;6.10;;;2.60;;
20101;SDS011;10210;52.284;9.892;2023-08-21T02:01:14;10.90;;;3.23;;
20101;SDS011;10210;52.284;9.892;2023-08-21T02:03:40;7.03;;;2.63;;
20101;SDS011;10210;52.284;9.892;2023-08-21T02:06:06;8.53;;;3.10;;
20101;SDS011;10210;52.284;9.892;2023-08-21T02:08:32;6.70;;;2.50;;
20101;SDS011;10210;52.284;9.892;2023-08-21T02:10:58;9.67;;;3.07;;
20101;SDS011;10210;52.284;9.892;2023-08-21T02:13:24;7.37;;;2.80;;
20101;SDS011;10210;52.284;9.892;2023-08-21T02:15:50;8.03;;;2.70;;
20101;SDS011;10210;52.284;9.892;2023-08-21T02:18:16;8.10;;;3.20;;
20101;SDS011;10210;52.284;9.892;2023-08-21T02:20:41;6.57;;;2.40;;
20101;SDS011;10210;52.284;9.892;2023-08-21T02:23:07;7.80;;;2.60;;
20101;SDS011;10210;52.284;9.892;2023-08-21T02:25:33;6.97;;;2.87;;
20101;SDS011;10210;52.284;9.892;2023-08-21T02:27:59;7.67;;;2.73;;
20101;SDS011;10210;52.284;9.892;2023-08-21T02:30:25;6.87;;;2.57;;
20101;SDS011;10210;52.284;9.892;2023-08-21T02:32:52;7.27;;;2.30;;
20101;SDS011;10210;52.284;9.892;2023-08-21T02:35:18;5.80;;;2.40;;
20101;SDS011;10210;52.284;9.892;2023-08-21T02:37:45;7.47;;;2.47;;
20101;SDS011;10210;52.284;9.892;2023-08-21T02:40:11;7.77;;;2.40;;
20101;SDS011;10210;52.284;9.892;2023-08-21T02:42:37;7.63;;;2.73;;
20101;SDS011;10210;52.284;9.892;2023-08-21T02:45:03;6.87;;;2.90;;
20101;SDS011;10210;52.284;9.892;2023-08-21T02:47:39;8.00;;;2.93;;
20101;SDS011;10210;52.284;9.892;2023-08-21T02:50:07;7.80;;;3.10;;
20101;SDS011;10210;52.284;9.892;2023-08-21T02:52:34;7.17;;;2.80;;
20101;SDS011;10210;52.284;9.892;2023-08-21T02:55:01;9.53;;;3.17;;
20101;SDS011;10210;52.284;9.892;2023-08-21T02:57:29;7.03;;;3.00;;
20101;SDS011;10210;52.284;9.892;2023-08-21T02:59:55;6.83;;;3.00;;
20101;SDS011;10210;52.284;9.892;2023-08-21T03:02:21;7.07;;;3.30;;
20101;SDS011;10210;52.284;9.892;2023-08-21T03:04:48;9.73;;;3.23;;
20101;SDS011;10210;52.284;9.892;2023-08-21T03:07:14;8.20;;;3.13;;
20101;SDS011;10210;52.284;9.892;2023-08-21T03:09:41;11.30;;;3.53;;
20101;SDS011;10210;52.284;9.892;2023-08-21T03:12:07;8.13;;;3.47;;
20101;SDS011;10210;52.284;9.892;2023-08-21T03:14:33;11.97;;;3.30;;
20101;SDS011;10210;52.284;9.892;2023-08-21T03:16:59;7.73;;;3.00;;
20101;SDS011;10210;52.284;9.892;2023-08-21T03:19:25;6.90;;;2.87;;
20101;SDS011;10210;52.284;9.892;2023-08-21T03:21:51;7.93;;;2.67;;
20101;SDS011;10210;52.284;9.892;2023-08-21T03:24:17;9.30;;;3.00;;
20101;SDS011;10210;52.284;9.892;2023-08-21T03:26:43;8.47;;;2.73;;
20101;SDS011;10210;52.284;9.892;2023-08-21T03:29:09;5.77;;;2.60;;
20101;SDS011;10210;52.284;9.892;2023-08-21T03:31:35;8.13;;;2.63;;
20101;SDS011;10210;52.284;9.892;2023-08-21T03:34:00;7.30;;;2.80;;
20101;SDS011;10210;52.284;9.892;2023-08-21T03:36:27;7.53;;;2.70;;
20101;SDS011;10210;52.284;9.892;2023-08-21T03:39:01;6.03;;;2.67;;
20101;SDS011;10210;52.284;9.892;2023-08-21T03:41:31;7.87;;;2.87;;
20101;SDS011;10210;52.284;9.892;2023-08-21T03:43:57;8.60;;;2.80;;
20101;SDS011;10210;52.284;9.892;2023-08-21T03:46:23;9.27;;;2.73;;
20101;SDS011;10210;52.284;9.892;2023-08-21T03:48:49;6.10;;;2.50;;
20101;SDS011;10210;52.284;9.892;2023-08-21T03:51:15;8.17;;;2.70;;
20101;SDS011;10210;52.284;9.892;2023-08-21T03:53:41;8.23;;;2.60;;
20101;SDS011;10210;52.284;9.892;2023-08-21T03:56:07;5.87;;;2.70;;
20101;SDS011;10210;52.284;9.892;2023-08-21T03:58:32;7.93;;;3.10;;
20101;SDS011;10210;52.284;9.892;2023-08-21T04:00:58;6.37;;;2.73;;
20101;SDS011;10210;52.284;9.892;2023-08-21T04:03:24;9.33;;;3.17;;
20101;SDS011;10210;52.284;9.892;2023-08-21T04:05:50;8.00;;;3.07;;
20101;SDS011;10210;52.284;9.892;2023-08-21T04:08:19;7.63;;;2.90;;
20101;SDS011;10210;52.284;9.892;2023-08-21T04:10:45;9.77;;;3.20;;
20101;SDS011;10210;52.284;9.892;2023-08-21T04:13:10;6.53;;;2.93;;
20101;SDS011;10210;52.284;9.892;2023-08-21T04:15:36;7.50;;;3.10;;
20101;SDS011;10210;52.284;9.892;2023-08-21T04:18:04;8.87;;;3.07;;
20101;SDS011;10210;52.284;9.892;2023-08-21T04:20:30;4.67;;;2.63;;
20101;SDS011;10210;52.284;9.892;2023-08-21T04:22:56;6.40;;;2.63;;
20101;SDS011;10210;52.284;9.892;2023-08-21T04:25:22;7.03;;;2.70;;
20101;SDS011;10210;52.284;9.892;2023-08-21T04:27:47;6.97;;;2.30;;
20101;SDS011;10210;52.284;9.892;2023-08-21T04:30:13;6.77;;;2.50;;
20101;SDS011;10210;52.284;9.892;2023-08-21T04:32:39;9.27;;;2.63;;
20101;SDS011;10210;52.284;9.892;2023-08-21T04:35:04;6.93;;;2.33;;
20101;SDS011;10210;52.284;9.892;2023-08-21T04:37:33;7.27;;;2.50;;
20101;SDS011;10210;52.284;9.892;2023-08-21T04:39:58;6.07;;;2.20;;
20101;SDS011;10210;52.284;9.892;2023-08-21T04:42:24;5.90;;;2.30;;
20101;SDS011;10210;52.284;9.892;2023-08-21T04:44:50;6.03;;;2.20;;
20101;SDS011;10210;52.284;9.892;2023-08-21T04:47:19;8.00;;;2.20;;
20101;SDS011;10210;52.284;9.892;2023-08-21T04:49:53;8.47;;;2.20;;
20101;SDS011;10210;52.284;9.892;2023-08-21T04:52:20;4.93;;;2.00;;
20101;SDS011;10210;52.284;9.892;2023-08-21T04:54:47;5.93;;;2.17;;
20101;SDS011;10210;52.284;9.892;2023-08-21T04:57:14;6.57;;;2.10;;
20101;SDS011;10210;52.284;9.892;2023-08-21T04:59:42;5.47;;;2.00;;
20101;SDS011;10210;52.284;9.892;2023-08-21T05:02:09;7.40;;;2.47;;
20101;SDS011;10210;52.284;9.892;2023-08-21T05:04:36;5.90;;;2.30;;
20101;SDS011;10210;52.284;9.892;2023-08-21T05:07:02;4.77;;;2.07;;
20101;SDS011;10210;52.284;9.892;2023-08-21T05:09:30;5.50;;;2.20;;
20101;SDS011;10210;52.284;9.892;2023-08-21T05:11:56;7.63;;;2.33;;
20101;SDS011;10210;52.284;9.892;2023-08-21T05:14:22;8.10;;;2.30;;
20101;SDS011;10210;52.284;9.892;2023-08-21T05:16:49;8.93;;;2.50;;
20101;SDS011;10210;52.284;9.892;2023-08-21T05:19:15;7.77;;;2.40;;
20101;SDS011;10210;52.284;9.892;2023-08-21T05:21:42;5.23;;;2.00;;
20101;SDS011;10210;52.284;9.892;2023-08-21T05:24:09;5.90;;;2.30;;
20101;SDS011;10210;52.284;9.892;2023-08-21T05:26:35;5.77;;;2.43;;
20101;SDS011;10210;52.284;9.892;2023-08-21T05:29:01;5.93;;;2.30;;
20101;SDS011;10210;52.284;9.892;2023-08-21T05:31:29;8.63;;;2.47;;
20101;SDS011;10210;52.284;9.892;2023-08-21T05:33:55;4.57;;;2.13;;
20101;SDS011;10210;52.284;9.892;2023-08-21T05:36:20;7.20;;;2.40;;
20101;SDS011;10210;52.284;9.892;2023-08-21T05:38:46;7.63;;;2.43;;
20101;SDS011;10210;52.284;9.892;2023-08-21T05:41:13;5.47;;;2.33;;
20101;SDS011;10210;52.284;9.892;2023-08-21T05:43:42;7.73;;;2.33;;
20101;SDS011;10210;52.284;9.892;2023-08-21T05:46:10;6.83;;;2.50;;
20101;SDS011;10210;52.284;9.892;2023-08-21T05:48:36;5.83;;;2.27;;
20101;SDS011;10210;52.284;9.892;2023-08-21T05:51:02;7.03;;;2.40;;
20101;SDS011;10210;52.284;9.892;2023-08-21T05:53:29;6.50;;;2.27;;
20101;SDS011;10210;52.284;9.892;2023-08-21T05:55:54;4.27;;;2.10;;
20101;SDS011;10210;52.284;9.892;2023-08-21T05:58:20;6.67;;;2.33;;
20101;SDS011;10210;52.284;9.892;2023-08-21T06:00:46;7.57;;;2.37;;
20101;SDS011;10210;52.284;9.892;2023-08-21T06:03:12;8.93;;;2.63;;
20101;SDS011;10210;52.284;9.892;2023-08-21T06:05:38;6.00;;;2.37;;
20101;SDS011;10210;52.284;9.892;2023-08-21T06:08:04;7.63;;;2.50;;
20101;SDS011;10210;52.284;9.892;2023-08-21T06:10:33;9.60;;;2.70;;
20101;SDS011;10210;52.284;9.892;2023-08-21T06:12:59;8.60;;;2.30;;
20101;SDS011;10210;52.284;9.892;2023-08-21T06:15:25;8.80;;;2.40;;
20101;SDS011;10210;52.284;9.892;2023-08-21T06:17:50;8.37;;;2.43;;
20101;SDS011;10210;52.284;9.892;2023-08-21T06:20:16;8.10;;;2.70;;
20101;SDS011;10210;52.284;9.892;2023-08-21T06:22:43;9.00;;;2.43;;
20101;SDS011;10210;52.284;9.892;2023-08-21T06:25:09;9.63;;;3.10;;
20101;SDS011;10210;52.284;9.892;2023-08-21T06:27:35;10.07;;;2.80;;
20101;SDS011;10210;52.284;9.892;2023-08-21T06:30:00;9.73;;;2.40;;
20101;SDS011;10210;52.284;9.892;2023-08-21T06:32:26;11.13;;;2.50;;
20101;SDS011;10210;52.284;9.892;2023-08-21T06:34:52;10.20;;;3.03;;
20101;SDS011;10210;52.284;9.892;2023-08-21T06:37:17;6.37;;;2.20;;
20101;SDS011;10210;52.284;9.892;2023-08-21T06:39:43;7.43;;;2.40;;
20101;SDS011;10210;52.284;9.892;2023-08-21T06:42:09;7.37;;;2.70;;
20101;SDS011;10210;52.284;9.892;2023-08-21T06:44:35;6.03;;;2.30;;
20101;SDS011;10210;52.284;9.892;2023-08-21T06:47:00;7.73;;;2.33;;
20101;SDS011;10210;52.284;9.892;2023-08-21T06:49:26;5.40;;;2.33;;
20101;SDS011;10210;52.284;9.892;2023-08-21T06:51:52;8.10;;;2.80;;
20101;SDS011;10210;52.284;9.892;2023-08-21T06:54:18;8.37;;;2.50;;
20101;SDS011;10210;52.284;9.892;2023-08-21T06:56:43;9.33;;;2.50;;
20101;SDS011;10210;52.284;9.892;2023-08-21T06:59:09;10.70;;;2.97;;
20101;SDS011;10210;52.284;9.892;2023-08-21T07:01:35;8.37;;;2.50;;
20101;SDS011;10210;52.284;9.892;2023-08-21T07:04:01;8.17;;;2.30;;
20101;SDS011;10210;52.284;9.892;2023-08-21T07:06:30;8.33;;;2.30;;
20101;SDS011;10210;52.284;9.892;2023-08-21T07:08:56;6.80;;;2.20;;
20101;SDS011;10210;52.284;9.892;2023-08-21T07:11:22;9.63;;;2.47;;
20101;SDS011;10210;52.284;9.892;2023-08-21T07:13:48;7.67;;;2.40;;
20101;SDS011;10210;52.284;9.892;2023-08-21T07:16:13;10.23;;;2.67;;
20101;SDS011;10210;52.284;9.892;2023-08-21T07:18:39;13.10;;;2.60;;
20101;SDS011;10210;52.284;9.892;2023-08-21T07:21:05;7.47;;;2.27;;
20101;SDS011;10210;52.284;9.892;2023-08-21T07:23:31;8.47;;;1.93;;
20101;SDS011;10210;52.284;9.892;2023-08-21T07:25:58;7.03;;;2.07;;
20101;SDS011;10210;52.284;9.892;2023-08-21T07:28:24;8.80;;;2.40;;
20101;SDS011;10210;52.284;9.892;2023-08-21T07:30:54;9.27;;;1.90;;
20101;SDS011;10210;52.284;9.892;2023-08-21T07:33:26;8.57;;;2.20;;
20101;SDS011;10210;52.284;9.892;2023-08-21T07:36:02;8.70;;;2.15;;
20101;SDS011;10210;52.284;9.892;2023-08-21T07:38:30;8.50;;;2.13;;
20101;SDS011;10210;52.284;9.892;2023-08-21T07:41:07;7.28;;;1.90;;
20101;SDS011;10210;52.284;9.892;2023-08-21T07:43:35;7.07;;;1.85;;
20101;SDS011;10210;52.284;9.892;2023-08-21T07:46:03;10.27;;;2.00;;
20101;SDS011;10210;52.284;9.892;2023-08-21T07:48:34;5.22;;;1.60;;
20101;SDS011;10210;52.284;9.892;2023-08-21T07:51:00;7.68;;;1.70;;
20101;SDS011;10210;52.284;9.892;2023-08-21T07:53:27;7.53;;;1.80;;
20101;SDS011;10210;52.284;9.892;2023-08-21T07:55:53;7.07;;;2.03;;
20101;SDS011;10210;52.284;9.892;2023-08-21T07:58:19;10.45;;;1.95;;
20101;SDS011;10210;52.284;9.892;2023-08-21T08:00:45;6.83;;;1.60;;
20101;SDS011;10210;52.284;9.892;2023-08-21T08:03:11;7.17;;;1.53;;
20101;SDS011;10210;52.284;9.892;2023-08-21T08:05:39;7.60;;;1.83;;
20101;SDS011;10210;52.284;9.892;2023-08-21T08:08:07;7.90;;;2.00;;
20101;SDS011;10210;52.284;9.892;2023-08-21T08:10:38;5.93;;;1.50;;
20101;SDS011;10210;52.284;9.892;2023-08-21T08:13:05;9.38;;;2.13;;
20101;SDS011;10210;52.284;9.892;2023-08-21T08:15:32;7.10;;;1.57;;
20101;SDS011;10210;52.284;9.892;2023-08-21T08:18:00;10.93;;;2.10;;
20101;SDS011;10210;52.284;9.892;2023-08-21T08:20:27;5.73;;;1.50;;
20101;SDS011;10210;52.284;9.892;2023-08-21T08:22:53;5.57;;;1.63;;
20101;SDS011;10210;52.284;9.892;2023-08-21T08:25:19;7.53;;;1.70;;
20101;SDS011;10210;52.284;9.892;2023-08-21T08:27:45;5.28;;;1.35;;
20101;SDS011;10210;52.284;9.892;2023-08-21T08:30:10;8.75;;;1.67;;
20101;SDS011;10210;52.284;9.892;2023-08-21T08:32:36;7.47;;;1.75;;
20101;SDS011;10210;52.284;9.892;2023-08-21T08:35:02;7.95;;;1.83;;
20101;SDS011;10210;52.284;9.892;2023-08-21T08:37:30;7.30;;;1.52;;
20101;SDS011;10210;52.284;9.892;2023-08-21T08:39:55;8.93;;;1.65;;
20101;SDS011;10210;52.284;9.892;2023-08-21T08:42:21;6.38;;;1.50;;
20101;SDS011;10210;52.284;9.892;2023-08-21T08:44:47;5.93;;;1.40;;
20101;SDS011;10210;52.284;9.892;2023-08-21T08:47:15;5.75;;;1.42;;
20101;SDS011;10210;52.284;9.892;2023-08-21T08:49:42;7.47;;;1.20;;
20101;SDS011;10210;52.284;9.892;2023-08-21T08:52:08;6.45;;;1.27;;
20101;SDS011;10210;52.284;9.892;2023-08-21T08:54:36;4.28;;;1.23;;
20101;SDS011;10210;52.284;9.892;2023-08-21T08:57:04;6.05;;;1.40;;
20101;SDS011;10210;52.284;9.892;2023-08-21T08:59:30;8.32;;;1.65;;
20101;SDS011;10210;52.284;9.892;2023-08-21T09:01:58;6.97;;;1.65;;
20101;SDS011;10210;52.284;9.892;2023-08-21T09:04:23;7.57;;;1.48;;
20101;SDS011;10210;52.284;9.892;2023-08-21T09:06:49;7.93;;;1.67;;
20101;SDS011;10210;52.284;9.892;2023-08-21T09:09:15;7.57;;;1.52;;
20101;SDS011;10210;52.284;9.892;2023-08-21T09:11:43;7.25;;;1.67;;
20101;SDS011;10210;52.284;9.892;2023-08-21T09:14:11;7.50;;;1.33;;
20101;SDS011;10210;52.284;9.892;2023-08-21T09:16:37;7.57;;;1.80;;
20101;SDS011;10210;52.284;9.892;2023-08-21T09:19:03;6.22;;;1.52;;
20101;SDS011;10210;52.284;9.892;2023-08-21T09:21:33;8.13;;;1.42;;
20101;SDS011;10210;52.284;9.892;2023-08-21T09:23:59;9.13;;;2.00;;
20101;SDS011;10210;52.284;9.892;2023-08-21T09:26:29;7.85;;;1.35;;
20101;SDS011;10210;52.284;9.892;2023-08-21T09:28:59;5.28;;;1.15;;
20101;SDS011;10210;52.284;9.892;2023-08-21T09:31:31;9.18;;;1.50;;
20101;SDS011;10210;52.284;9.892;2023-08-21T09:33:59;6.03;;;1.42;;
20101;SDS011;10210;52.284;9.892;2023-08-21T09:36:29;5.53;;;1.30;;
20101;SDS011;10210;52.284;9.892;2023-08-21T09:38:56;6.63;;;1.48;;
20101;SDS011;10210;52.284;9.892;2023-08-21T09:41:22;10.10;;;1.90;;
20101;SDS011;10210;52.284;9.892;2023-08-21T09:43:49;8.27;;;1.58;;
20101;SDS011;10210;52.284;9.892;2023-08-21T09:46:15;9.48;;;1.85;;
20101;SDS011;10210;52.284;9.892;2023-08-21T09:48:48;6.65;;;1.40;;
20101;SDS011;10210;52.284;9.892;2023-08-21T09:51:16;5.95;;;1.63;;
20101;SDS011;10210;52.284;9.892;2023-08-21T09:53:43;6.65;;;1.60;;
20101;SDS011;10210;52.284;9.892;2023-08-21T09:56:11;6.72;;;1.50;;
20101;SDS011;10210;52.284;9.892;2023-08-21T09:58:37;7.07;;;1.60;;
20101;SDS011;10210;52.284;9.892;2023-08-21T10:01:07;7.13;;;1.35;;
20101;SDS011;10210;52.284;9.892;2023-08-21T10:03:39;7.32;;;1.90;;
20101;SDS011;10210;52.284;9.892;2023-08-21T10:06:10;4.45;;;1.35;;
20101;SDS011;10210;52.284;9.892;2023-08-21T10:08:40;6.38;;;1.38;;
20101;SDS011;10210;52.284;9.892;2023-08-21T10:11:09;7.50;;;1.70;;
20101;SDS011;10210;52.284;9.892;2023-08-21T10:13:36;7.43;;;1.45;;
20101;SDS011;10210;52.284;9.892;2023-08-21T10:16:06;8.43;;;1.50;;
20101;SDS011;10210;52.284;9.892;2023-08-21T10:18:34;8.40;;;1.50;;
20101;SDS011;10210;52.284;9.892;2023-08-21T10:21:14;9.80;;;1.55;;
20101;SDS011;10210;52.284;9.892;2023-08-21T10:23:46;8.20;;;1.48;;
20101;SDS011;10210;52.284;9.892;2023-08-21T10:26:14;8.07;;;1.60;;
20101;SDS011;10210;52.284;9.892;2023-08-21T10:28:48;7.57;;;1.70;;
20101;SDS011;10210;52.284;9.892;2023-08-21T10:34:25;6.80;;;1.70;;
20101;SDS011;10210;52.284;9.892;2023-08-21T10:37:04;5.82;;;1.40;;
20101;SDS011;10210;52.284;9.892;2023-08-21T10:39:37;7.88;;;1.73;;
20101;SDS011;10210;52.284;9.892;2023-08-21T10:42:11;6.60;;;1.50;;
20101;SDS011;10210;52.284;9.892;2023-08-21T10:47:21;7.13;;;1.50;;
20101;SDS011;10210;52.284;9.892;2023-08-21T10:49:58;5.78;;;1.48;;
20101;SDS011;10210;52.284;9.892;2023-08-21T10:52:27;8.05;;;1.52;;
20101;SDS011;10210;52.284;9.892;2023-08-21T10:54:58;11.52;;;1.98;;
20101;SDS011;10210;52.284;9.892;2023-08-21T10:57:26;6.43;;;1.42;;
20101;SDS011;10210;52.284;9.892;2023-08-21T10:59:54;4.70;;;1.15;;
20101;SDS011;10210;52.284;9.892;2023-08-21T11:02:25;5.43;;;1.40;;
20101;SDS011;10210;52.284;9.892;2023-08-21T11:04:56;4.15;;;1.23;;
20101;SDS011;10210;52.284;9.892;2023-08-21T11:07:23;7.05;;;1.52;;
20101;SDS011;10210;52.284;9.892;2023-08-21T11:09:49;3.53;;;1.20;;
20101;SDS011;10210;52.284;9.892;2023-08-21T11:12:17;6.13;;;1.67;;
20101;SDS011;10210;52.284;9.892;2023-08-21T11:14:45;5.90;;;1.40;;
20101;SDS011;10210;52.284;9.892;2023-08-21T11:17:11;8.52;;;1.52;;
20101;SDS011;10210;52.284;9.892;2023-08-21T11:19:38;5.32;;;1.25;;
20101;SDS011;10210;52.284;9.892;2023-08-21T11:22:06;7.05;;;1.52;;
20101;SDS011;10210;52.284;9.892;2023-08-21T11:27:08;5.13;;;1.50;;
20101;SDS011;10210;52.284;9.892;2023-08-21T11:29:41;6.30;;;1.33;;
20101;SDS011;10210;52.284;9.892;2023-08-21T11:32:13;5.80;;;1.40;;
20101;SDS011;10210;52.284;9.892;2023-08-21T11:34:43;5.78;;;1.33;;
20101;SDS011;10210;52.284;9.892;2023-08-21T11:37:23;6.30;;;1.50;;
20101;SDS011;10210;52.284;9.892;2023-08-21T11:39:56;7.00;;;1.92;;
20101;SDS011;10210;52.284;9.892;2023-08-21T11:42:30;5.53;;;1.40;;
20101;SDS011;10210;52.284;9.892;2023-08-21T11:44:58;7.22;;;1.48;;
20101;SDS011;10210;52.284;9.892;2023-08-21T11:47:33;7.03;;;1.50;;
20101;SDS011;10210;52.284;9.892;2023-08-21T11:50:03;6.50;;;1.70;;
20101;SDS011;10210;52.284;9.892;2023-08-21T11:52:32;9.20;;;1.80;;
20101;SDS011;10210;52.284;9.892;2023-08-21T11:55:00;6.72;;;1.50;;
20101;SDS011;10210;52.284;9.892;2023-08-21T11:57:26;6.28;;;1.48;;
20101;SDS011;10210;52.284;9.892;2023-08-21T11:59:55;6.88;;;1.45;;
20101;SDS011;10210;52.284;9.892;2023-08-21T12:02:22;3.83;;;1.05;;
20101;SDS011;10210;52.284;9.892;2023-08-21T12:05:03;5.95;;;1.33;;
20101;SDS011;10210;52.284;9.892;2023-08-21T12:07:32;6.50;;;1.27;;
20101;SDS011;10210;52.284;9.892;2023-08-21T12:09:58;7.95;;;1.60;;
20101;SDS011;10210;52.284;9.892;2023-08-21T12:12:24;6.47;;;1.48;;
20101;SDS011;10210;52.284;9.892;2023-08-21T12:14:50;6.72;;;1.30;;
20101;SDS011;10210;52.284;9.892;2023-08-21T12:17:16;7.60;;;1.35;;
20101;SDS011;10210;52.284;9.892;2023-08-21T12:19:42;4.45;;;1.25;;
20101;SDS011;10210;52.284;9.892;2023-08-21T12:22:08;5.72;;;1.20;;
20101;SDS011;10210;52.284;9.892;2023-08-21T12:24:34;6.78;;;1.38;;
20101;SDS011;10210;52.284;9.892;2023-08-21T12:27:02;5.88;;;1.15;;
20101;SDS011;10210;52.284;9.892;2023-08-21T12:29:31;5.35;;;1.30;;
20101;SDS011;10210;52.284;9.892;2023-08-21T12:31:56;7.55;;;1.40;;
20101;SDS011;10210;52.284;9.892;2023-08-21T12:34:23;5.45;;;1.10;;
20101;SDS011;10210;52.284;9.892;2023-08-21T12:36:51;5.53;;;1.10;;
20101;SDS011;10210;52.284;9.892;2023-08-21T12:39:17;4.93;;;1.35;;
20101;SDS011;10210;52.284;9.892;2023-08-21T12:41:43;4.32;;;1.20;;
20101;SDS011;10210;52.284;9.892;2023-08-21T12:44:09;6.90;;;1.27;;
20101;SDS011;10210;52.284;9.892;2023-08-21T12:46:35;5.82;;;1.13;;
20101;SDS011;10210;52.284;9.892;2023-08-21T12:49:01;4.13;;;1.17;;
20101;SDS011;10210;52.284;9.892;2023-08-21T12:51:28;5.85;;;1.10;;
20101;SDS011;10210;52.284;9.892;2023-08-21T12:53:54;6.53;;;1.25;;
20101;SDS011;10210;52.284;9.892;2023-08-21T12:56:20;3.75;;;1.00;;
20101;SDS011;10210;52.284;9.892;2023-08-21T12:58:46;4.25;;;1.05;;
20101;SDS011;10210;52.284;9.892;2023-08-21T13:01:12;4.07;;;1.00;;
20101;SDS011;10210;52.284;9.892;2023-08-21T13:03:43;4.85;;;1.13;;
20101;SDS011;10210;52.284;9.892;2023-08-21T13:06:13;3.38;;;0.88;;
20101;SDS011;10210;52.284;9.892;2023-08-21T13:08:39;3.25;;;0.80;;
20101;SDS011;10210;52.284;9.892;2023-08-21T13:11:05;6.90;;;1.35;;
20101;SDS011;10210;52.284;9.892;2023-08-21T13:13:31;7.68;;;1.30;;
20101;SDS011;10210;52.284;9.892;2023-08-21T13:15:57;6.93;;;1.13;;
20101;SDS011;10210;52.284;9.892;2023-08-21T13:18:25;3.97;;;1.13;;
20101;SDS011;10210;52.284;9.892;2023-08-21T13:20:51;6.03;;;1.17;;
20101;SDS011;10210;52.284;9.892;2023-08-21T13:23:17;3.00;;;1.10;;
20101;SDS011;10210;52.284;9.892;2023-08-21T13:25:42;5.38;;;1.20;;
20101;SDS011;10210;52.284;9.892;2023-08-21T13:28:08;7.05;;;1.25;;
20101;SDS011;10210;52.284;9.892;2023-08-21T13:30:35;3.17;;;1.10;;
20101;SDS011;10210;52.284;9.892;2023-08-21T13:33:01;4.38;;;1.20;;
20101;SDS011;10210;52.284;9.892;2023-08-21T13:35:29;6.43;;;1.38;;
20101;SDS011;10210;52.284;9.892;2023-08-21T13:37:56;6.07;;;1.40;;
20101;SDS011;10210;52.284;9.892;2023-08-21T13:40:21;5.63;;;1.33;;
20101;SDS011;10210;52.284;9.892;2023-08-21T13:42:49;4.35;;;1.10;;
20101;SDS011;10210;52.284;9.892;2023-08-21T13:45:16;7.47;;;1.13;;
20101;SDS011;10210;52.284;9.892;2023-08-21T13:47:45;5.10;;;1.02;;
20101;SDS011;10210;52.284;9.892;2023-08-21T13:50:13;7.65;;;1.40;;
20101;SDS011;10210;52.284;9.892;2023-08-21T13:52:41;8.05;;;1.30;;
20101;SDS011;10210;52.284;9.892;2023-08-21T13:55:08;4.25;;;1.20;;
20101;SDS011;10210;52.284;9.892;2023-08-21T13:57:38;4.88;;;1.20;;
20101;SDS011;10210;52.284;9.892;2023-08-21T14:00:05;6.78;;;1.25;;
20101;SDS011;10210;52.284;9.892;2023-08-21T14:02:36;6.35;;;1.23;;
20101;SDS011;10210;52.284;9.892;2023-08-21T14:05:02;4.03;;;1.00;;
20101;SDS011;10210;52.284;9.892;2023-08-21T14:07:30;4.80;;;1.27;;
20101;SDS011;10210;52.284;9.892;2023-08-21T14:09:57;4.53;;;1.08;;
20101;SDS011;10210;52.284;9.892;2023-08-21T14:12:23;3.45;;;1.00;;
20101;SDS011;10210;52.284;9.892;2023-08-21T14:14:49;4.80;;;1.10;;
20101;SDS011;10210;52.284;9.892;2023-08-21T14:17:15;4.75;;;1.08;;
20101;SDS011;10210;52.284;9.892;2023-08-21T14:19:41;5.35;;;1.40;;
20101;SDS011;10210;52.284;9.892;2023-08-21T14:22:07;5.47;;;1.27;;
20101;SDS011;10210;52.284;9.892;2023-08-21T14:24:32;5.13;;;1.10;;
20101;SDS011;10210;52.284;9.892;2023-08-21T14:26:58;5.07;;;1.30;;
20101;SDS011;10210;52.284;9.892;2023-08-21T14:29:24;3.22;;;0.98;;
20101;SDS011;10210;52.284;9.892;2023-08-21T14:31:50;3.97;;;1.10;;
20101;SDS011;10210;52.284;9.892;2023-08-21T14:34:18;3.03;;;0.77;;
20101;SDS011;10210;52.284;9.892;2023-08-21T14:36:48;5.28;;;1.20;;
20101;SDS011;10210;52.284;9.892;2023-08-21T14:39:14;1.85;;;0.93;;
20101;SDS011;10210;52.284;9.892;2023-08-21T14:41:43;6.38;;;1.10;;
20101;SDS011;10210;52.284;9.892;2023-08-21T14:44:09;7.75;;;1.27;;
20101;SDS011;10210;52.284;9.892;2023-08-21T14:46:35;17.73;;;2.13;;
20101;SDS011;10210;52.284;9.892;2023-08-21T14:49:02;3.42;;;1.00;;
20101;SDS011;10210;52.284;9.892;2023-08-21T14:51:27;2.17;;;0.93;;
20101;SDS011;10210;52.284;9.892;2023-08-21T14:53:53;4.13;;;0.93;;
20101;SDS011;10210;52.284;9.892;2023-08-21T14:56:20;2.90;;;0.75;;
20101;SDS011;10210;52.284;9.892;2023-08-21T14:58:46;2.88;;;1.00;;